ADDS METAR Data INFO
IDs: Format: Raw Decoded Include TAF

Data at: 2340 UTC 15 Dec 2017

PASL 152207Z AUTO VRB03KT 1SM -SN BR OVC014 M01/M01 A2918 RMK AO2 P0000 FZRANO
PASL 152125Z AUTO VRB03KT 3/4SM -SN BR OVC016 M01/M02 A2921 RMK AO2 P0000 FZRANO
PASL 152056Z AUTO VRB03KT 6SM -SN BR BKN022 OVC029 M01/M02 A2922 RMK AO2 UPB25E27SNB27 SLP893 P0000 60000 T10111022 56024 FZRANO
PASL 152038Z AUTO 13004KT 8SM -SN BKN024 BKN031 OVC040 M02/M02 A2923 RMK AO2 UPB25E27SNB27 P0000 FZRANO
PASL 151903Z AUTO 00000KT 8SM -SN SCT025 BKN034 OVC041 M03/M04 A2926 RMK AO2 P0000 FZRANO
PASL 151756Z AUTO 22003KT 10SM SCT060 BKN075 BKN110 M05/M06 A2929 RMK AO2 SLP917 60000 T10501056 11028 21061 56050 FZRANO
PASL 151656Z AUTO 00000KT 10SM FEW120 M06/M07 A2934 RMK AO2 SLP934 T10561067 FZRANO
PASL 151456Z AUTO 00000KT 10SM CLR M06/M06 A2944 RMK AO2 SLP967 60000 T10561061 58023 FZRANO
PASL 151356Z AUTO 00000KT 10SM BKN007 M04/M05 A2948 RMK AO2 SLP980 T10441050 FZRANO
PASL 151252Z AUTO 00000KT 10SM OVC005 M03/M03 A2951 RMK AO2 SNE07 P0000 FZRANO
PASL 151156Z AUTO 00000KT 9SM -SN OVC007 M03/M03 A2955 RMK AO2 UPB30E35SNE30B35 SLP004 P0000 60000 T10281033 11028 21033 58016 FZRANO
PASL 151025Z AUTO 00000KT 3SM -SN BR OVC007 M03/M03 A2958 RMK AO2 UPB06E10SNE02B10 CIG 004V010 P0000 FZRANO
PASL 151020Z AUTO 00000KT 1 3/4SM -SN BR OVC007 M03/M03 A2958 RMK AO2 VIS 1V3 UPB06E10SNE02B10 CIG 004V010 P0000 FZRANO
PASL 150951Z AUTO 00000KT 3/4SM BR OVC005 M03/M03 A2960 RMK AO2 SNB09E46 P0000 FZRANO
PASL 150856Z AUTO 00000KT 1 1/2SM BR OVC005 M03/M03 A2959 RMK AO2 SNE17 CIG 002V008 SLP019 P0000 60000 T10331033 56006 FZRANO
PASL 150835Z AUTO 00000KT 2SM BR OVC005 M03/M03 A2960 RMK AO2 SNE17 CIG 003V009 P0000 FZRANO
PASL 150823Z AUTO 00000KT 1 1/4SM BR BKN003 OVC008 M03/M03 A2960 RMK AO2 SNE17 CIG 003V007 P0000 FZRANO
PASL 150812Z AUTO 00000KT 1SM -SN BR OVC008 M03/M03 A2960 RMK AO2 CIG 003V011 P0000 FZRANO
PASL 150756Z AUTO 00000KT 1 1/4SM -SN BR BKN006 OVC010 M03/M03 A2961 RMK AO2 CIG 003V007 SLP023 P0000 T10331033 400061033 FZRANO
PASL 150703Z AUTO 14003KT 2SM -SN BR BKN008 OVC011 M03/M03 A2962 RMK AO2 CIG 004V010 P0000 FZRANO
PASL 150641Z AUTO 00000KT 1SM -SN BR OVC006 M03/M03 A2962 RMK AO2 SNE13B38 CIG 006V009 P0000 FZRANO
PASL 150625Z AUTO 00000KT 1 1/2SM BR OVC008 M03/M03 A2962 RMK AO2 VIS 1V2 SNE13 CIG 005V011 P0000 FZRANO
PASL 150610Z AUTO 14003KT 2 1/2SM -SN BR OVC008 M03/M03 A2962 RMK AO2 VIS 1 3/4V4 CIG 004V011 P0000 FZRANO
PASL 150537Z AUTO 16003KT 1 1/2SM -SN BR SCT008 OVC014 M03/M03 A2962 RMK AO2 UPE16SNB16 P0000 FZRANO
PASL 150503Z AUTO 16003KT 2 1/2SM UP BR OVC004 M02/M03 A2962 RMK AO2 CIG 002V008 P0000 FZRANO
PASL 150453Z AUTO 15004KT 1 1/4SM UP BR OVC002 M02/M02 A2961 RMK AO2 UPB35 P0000 FZRANO
PASL 150436Z AUTO 00000KT 3/4SM UP BR OVC002 M02/M02 A2961 RMK AO2 UPB35 P0000 FZRANO
PASL 150426Z AUTO 00000KT 1SM BR OVC002 M02/M02 A2961 RMK AO2 FZRANO
PASL 150356Z AUTO 00000KT 1SM BR OVC002 M02/M02 A2960 RMK AO2 UPE0259 SLP022 P0000 T10221022 FZRANO
PASL 150305Z AUTO 00000KT 1 1/4SM BR OVC002 M02/M02 A2961 RMK AO2 UPE0259 P0000 FZRANO
PASL 150254Z AUTO 00000KT 2SM UP BR BKN002 OVC017 M02/M02 A2961 RMK AO2 UPB49 P0000 FZRANO
PASL 150232Z AUTO 00000KT 1SM BR SCT002 BKN009 OVC015 M02/M02 A2961 RMK AO2 CIG 007V010 FZRANO
PASL 142356Z AUTO 00000KT 1/2SM FZFG OVC002 M01/M01 A2960 RMK AO2 SLP021 T10061011 10000 21011 57003 FZRANO
PASL 142344Z AUTO 00000KT 1/2SM FZFG OVC002 M01/M01 A2960 RMK AO2 CIG 002V007 FZRANO
PASL 142228Z AUTO 00000KT 3/4SM BR OVC004 M01/M01 A2961 RMK AO2 FZRANO
PASL 142143Z AUTO 00000KT 1/2SM FG OVC004 00/M01 A2961 RMK AO2 FZRANO
PASL 142056Z AUTO 00000KT 3/4SM BR OVC009 M01/M01 A2961 RMK AO2 CIG 004V011 SLPNO T10061006 53003 FZRANO
PASL 141956Z AUTO 00000KT 1/2SM FZFG BKN004 OVC008 M01/M02 A2960 RMK AO2 SLP021 T10111017 FZRANO
PASL 141941Z AUTO 00000KT 1/2SM FZFG BKN004 OVC035 M01/M02 A2960 RMK AO2 CIG 002V005 FZRANO
PASL 141912Z AUTO 00000KT 1SM BR FEW004 OVC037 M01/M01 A2960 RMK AO2 FZRANO
PASL 141904Z AUTO 00000KT 2SM BR SCT004 OVC037 M01/M01 A2960 RMK AO2 FZRANO
PASL 141900Z AUTO 00000KT 1 1/4SM BR SCT004 BKN010 OVC037 M01/M01 A2960 RMK AO2 FZRANO
PASL 141856Z AUTO 00000KT 1SM BR BKN004 BKN010 OVC039 M01/M01 A2960 RMK AO2 SLP020 T10061011 FZRANO
PASL 141719Z AUTO 00000KT 3/4SM BR SCT002 BKN008 OVC011 M01/M01 A2961 RMK AO2 FZRANO
PASL 141703Z AUTO 00000KT 1/2SM FZFG BKN002 OVC011 M01/M01 A2961 RMK AO2 FZRANO
PASL 141656Z AUTO 00000KT 3/4SM BR OVC002 M01/M01 A2961 RMK AO2 SLP025 T10061006 FZRANO
PASL 141543Z AUTO 00000KT 3/4SM BR BKN004 OVC009 00/M01 A2962 RMK AO2 UPB30E42 P0000 FZRANO
PASL 141440Z AUTO 00000KT 1/2SM FG OVC004 00/00 A2963 RMK AO2 FZRANO
PASL 141407Z AUTO 00000KT 1/2SM FG OVC006 00/00 A2963 RMK AO2 CIG 002V008 FZRANO
PASL 141328Z AUTO 00000KT 1/2SM FG OVC004 00/00 A2964 RMK AO2 FZRANO
PASL 141256Z AUTO 00000KT 1/2SM FG OVC004 01/00 A2965 RMK AO2 SLP036 T00060000 FZRANO
PASL 141225Z AUTO 00000KT 1/2SM FG OVC004 01/00 A2965 RMK AO2 FZRANO